Capt. Timmy Callais — WDD7434 — position and weather

sailwx.info

Track history (hours):
 
Tides and Currents Weather Stations Pressure Air Temp Water Temp Dewpoint Dewpoint Depression Visibility Wind Speed Wind Dir Waves Ship Positions

Capt. Timmy Callais

Owner: Florida Marine, LLC, Mandeville, LA. More information available from US FCC via Universal Licensing System and Coast Guard Vessel Documentation Center.

Last reported at 2018-Jun-20 14:24 UTC. Time now 2018-Jun-20 22:49 UTC.
Position N 29°23' W 094°46'.

Length 27 m; draft 2.8 m.

Type: Towing. MMSI: 367186360.

Date/timePositionNaut miles runAvg speedWind from/ knotsBaromVisibWave heightAir tempDewpointWater temp
2018-Jun-20 14:24N 29°23' W 094°46'0 0.0
2018-Jun-20 12:51N 29°23' W 094°46'18 1.6
2018-Jun-20 01:10N 29°33' W 094°28'1 6.2
2018-Jun-20 01:00N 29°34' W 094°28'3 5.5
2018-Jun-20 00:29N 29°35' W 094°25'2 4.8
2018-Jun-19 23:59N 29°36' W 094°22'3 6.8
2018-Jun-19 23:30N 29°38' W 094°19'3 6.8
2018-Jun-19 23:00N 29°39' W 094°16'3 6.7
2018-Jun-19 22:30N 29°41' W 094°12'3 6.2
2018-Jun-19 22:00N 29°42' W 094°09'3 6.2
2018-Jun-19 21:30N 29°44' W 094°06'3 6.2
2018-Jun-19 21:00N 29°46' W 094°03'3 6.0
2018-Jun-19 20:30N 29°48' W 094°01'3 5.1
2018-Jun-19 20:00N 29°49' W 093°58'2 5.0
2018-Jun-19 19:30N 29°51' W 093°57'4 7.0
2018-Jun-19 19:00N 29°54' W 093°54'4 7.1
2018-Jun-19 18:30N 29°57' W 093°52'3 5.7
2018-Jun-19 18:00N 29°59' W 093°49'3 6.3
2018-Jun-19 17:30N 30°00' W 093°46'3 5.2
2018-Jun-19 17:00N 30°02' W 093°44'3 5.6
2018-Jun-19 16:30N 30°04' W 093°41'3 5.8
2018-Jun-19 16:00N 30°04' W 093°38'3 5.6
2018-Jun-19 15:30N 30°04' W 093°35'3 5.5
2018-Jun-19 15:00N 30°04' W 093°31'3 5.6
2018-Jun-19 14:30N 30°04' W 093°28'3 5.5
2018-Jun-19 14:00N 30°04' W 093°25'3 5.5
2018-Jun-19 13:30N 30°04' W 093°22'3 5.5
2018-Jun-19 13:00N 30°06' W 093°20'3 5.3
2018-Jun-19 12:30N 30°08' W 093°19'0 0.3
2018-Jun-19 11:59N 30°08' W 093°19'0 0.0
2018-Jun-19 11:28N 30°08' W 093°19'0 0.0
2018-Jun-19 10:58N 30°08' W 093°19'0 0.0
2018-Jun-19 10:28N 30°08' W 093°19'0 0.0
2018-Jun-19 09:58N 30°08' W 093°19'0 0.0
2018-Jun-19 09:28N 30°08' W 093°19'0 0.0
2018-Jun-19 08:58N 30°08' W 093°19'0 0.0
2018-Jun-19 08:28N 30°08' W 093°19'0 0.0
2018-Jun-19 07:58N 30°08' W 093°19'0 0.0
2018-Jun-19 07:28N 30°08' W 093°19'0 0.0
2018-Jun-19 06:58N 30°08' W 093°19'0 0.0
2018-Jun-19 06:28N 30°08' W 093°19'0 0.0
2018-Jun-19 05:58N 30°08' W 093°19'0 0.0
2018-Jun-19 05:28N 30°08' W 093°19'0 0.0
2018-Jun-19 04:58N 30°08' W 093°19'0 0.0
2018-Jun-19 04:28N 30°08' W 093°19'0 0.0
2018-Jun-19 03:58N 30°08' W 093°19'0 0.0
2018-Jun-19 03:28N 30°08' W 093°19'0 0.0
2018-Jun-19 02:58N 30°08' W 093°19'0 0.0
2018-Jun-19 02:28N 30°08' W 093°19'0 0.0
2018-Jun-19 01:58N 30°08' W 093°19'0 0.0
2018-Jun-19 01:28N 30°08' W 093°19'0 0.0
2018-Jun-19 00:58N 30°08' W 093°19'0 0.0
2018-Jun-19 00:28N 30°08' W 093°19'0 0.0
2018-Jun-18 23:58N 30°08' W 093°19'0 0.0
2018-Jun-18 23:28N 30°08' W 093°19'0 0.0
2018-Jun-18 22:58N 30°08' W 093°19'0 0.7
2018-Jun-18 22:28N 30°08' W 093°20'0 0.0
2018-Jun-18 21:58N 30°08' W 093°20'0 0.0
2018-Jun-18 21:28N 30°08' W 093°20'0 0.7
2018-Jun-18 21:00N 30°08' W 093°20'2 4.1
2018-Jun-18 20:30N 30°06' W 093°20'1 1.8
2018-Jun-18 20:00N 30°05' W 093°20'0 0.1
2018-Jun-18 19:30N 30°05' W 093°20'0 0.0
2018-Jun-18 18:59N 30°05' W 093°20'0 0.0
2018-Jun-18 18:29N 30°05' W 093°20'0 0.0
2018-Jun-18 17:59N 30°05' W 093°20'0 0.0
2018-Jun-18 17:29N 30°05' W 093°20'0 0.0
2018-Jun-18 16:59N 30°05' W 093°20'0 0.0
2018-Jun-18 16:29N 30°05' W 093°20'0 0.0
2018-Jun-18 15:59N 30°05' W 093°20'0 0.0
2018-Jun-18 15:29N 30°05' W 093°20'0 0.0
2018-Jun-18 14:59N 30°05' W 093°20'0 0.0
2018-Jun-18 14:29N 30°05' W 093°20'0 0.0
2018-Jun-18 13:59N 30°05' W 093°20'0 0.0
2018-Jun-18 13:29N 30°05' W 093°20'0 0.0
2018-Jun-18 13:00N 30°05' W 093°20'0 0.0
2018-Jun-18 12:29N 30°05' W 093°20'0 0.0
2018-Jun-18 11:59N 30°05' W 093°20'0 0.0
2018-Jun-18 11:23N 30°05' W 093°20'0 0.0
2018-Jun-18 10:59N 30°05' W 093°20'0 0.0
2018-Jun-18 10:29N 30°05' W 093°20'0 0.0
2018-Jun-18 09:59N 30°05' W 093°20'0 0.0
2018-Jun-18 09:29N 30°05' W 093°20'0 0.0
2018-Jun-18 09:00N 30°05' W 093°20'0 0.0
2018-Jun-18 08:29N 30°05' W 093°20'0 0.0
2018-Jun-18 07:59N 30°05' W 093°20'0 0.0
2018-Jun-18 07:29N 30°05' W 093°20'0 0.0
2018-Jun-18 06:59N 30°05' W 093°20'0 0.0
2018-Jun-18 06:29N 30°05' W 093°20'0 0.0
2018-Jun-18 05:59N 30°05' W 093°20'0 0.0
2018-Jun-18 05:29N 30°05' W 093°20'1 2.9
2018-Jun-18 05:00N 30°06' W 093°19'1 1.1
2018-Jun-18 04:30N 30°06' W 093°18'0 0.3
2018-Jun-18 03:59N 30°06' W 093°18'0 0.0
2018-Jun-18 03:29N 30°06' W 093°18'0 0.3
2018-Jun-18 03:01N 30°06' W 093°18'2 3.2
2018-Jun-18 02:28N 30°05' W 093°20'0 0.0
2018-Jun-18 01:58N 30°05' W 093°20'0 0.0
2018-Jun-18 01:28N 30°05' W 093°20'0 0.0
2018-Jun-18 00:58N 30°05' W 093°20'0 0.0
2018-Jun-18 00:28N 30°05' W 093°20'0 0.0
2018-Jun-17 23:58N 30°05' W 093°20'0 0.0
2018-Jun-17 23:30N 30°05' W 093°20'0 0.1
2018-Jun-17 22:59N 30°05' W 093°20'0 0.2
2018-Jun-17 22:29N 30°05' W 093°20'0 0.0
2018-Jun-17 21:59N 30°05' W 093°20'0 0.0
2018-Jun-17 21:29N 30°05' W 093°20'0 0.0
2018-Jun-17 20:59N 30°05' W 093°20'0 0.0
2018-Jun-17 20:29N 30°05' W 093°20'0 0.0
2018-Jun-17 19:59N 30°05' W 093°20'0 0.0
2018-Jun-17 19:29N 30°05' W 093°20'0 0.0
2018-Jun-17 18:59N 30°05' W 093°20'0 0.0
2018-Jun-17 18:29N 30°05' W 093°20'0 0.0
2018-Jun-17 17:59N 30°05' W 093°20'0 0.0
2018-Jun-17 17:29N 30°05' W 093°20'0 0.0
2018-Jun-17 16:56N 30°05' W 093°20'0 0.0
2018-Jun-17 16:29N 30°05' W 093°20'0 0.0
2018-Jun-17 15:59N 30°05' W 093°20'0 0.0
2018-Jun-17 15:29N 30°05' W 093°20'0 0.0
2018-Jun-17 14:59N 30°05' W 093°20'0 0.0
2018-Jun-17 14:29N 30°05' W 093°20'0 0.0
2018-Jun-17 14:00N 30°05' W 093°20'0 0.0
2018-Jun-17 13:30N 30°05' W 093°20'0 0.0
2018-Jun-17 13:00N 30°05' W 093°20'0 0.0
2018-Jun-17 12:30N 30°05' W 093°20'0 0.0
2018-Jun-17 12:00N 30°05' W 093°20'0 0.0
2018-Jun-17 11:30N 30°05' W 093°20'0 0.0
2018-Jun-17 11:00N 30°05' W 093°20'0 0.0
2018-Jun-17 10:30N 30°05' W 093°20'0 0.0
2018-Jun-17 10:00N 30°05' W 093°20'0 0.0
2018-Jun-17 09:30N 30°05' W 093°20'0 0.0
2018-Jun-17 09:00N 30°05' W 093°20'0 0.0
2018-Jun-17 08:30N 30°05' W 093°20'0 0.0
2018-Jun-17 08:00N 30°05' W 093°20'0 0.0
2018-Jun-17 07:30N 30°05' W 093°20'0 0.0
2018-Jun-17 07:00N 30°05' W 093°20'0 0.0
2018-Jun-17 06:30N 30°05' W 093°20'0 0.0
2018-Jun-17 06:00N 30°05' W 093°20'0 0.0
2018-Jun-17 05:30N 30°05' W 093°20'0 0.0
2018-Jun-17 05:00N 30°05' W 093°20'0 0.0
2018-Jun-17 04:30N 30°05' W 093°20'0 0.0
2018-Jun-17 03:54N 30°05' W 093°20'0 0.0
2018-Jun-17 03:30N 30°05' W 093°20'0 0.0
2018-Jun-17 03:00N 30°05' W 093°20'0 0.5
2018-Jun-17 02:29N 30°05' W 093°20'0 0.0
2018-Jun-17 01:59N 30°05' W 093°20'0 0.0
2018-Jun-17 01:29N 30°05' W 093°20'0 0.0
2018-Jun-17 00:59N 30°05' W 093°20'0 0.0
2018-Jun-17 00:29N 30°05' W 093°20'0 0.0
2018-Jun-16 23:59N 30°05' W 093°20'0 0.0
2018-Jun-16 23:29N 30°05' W 093°20'0 0.5
2018-Jun-16 23:00N 30°05' W 093°20'0 0.4
2018-Jun-16 22:30N 30°05' W 093°20'1 1.7
2018-Jun-16 22:00N 30°06' W 093°20'0 0.9
2018-Jun-16 21:30N 30°06' W 093°19'1 2.5
2018-Jun-16 21:00N 30°05' W 093°18'1 1.5
2018-Jun-16 20:30N 30°05' W 093°17'1 1.9
2018-Jun-16 20:00N 30°04' W 093°16'0 0.6
2018-Jun-16 19:30N 30°04' W 093°16'0 0.6
2018-Jun-16 19:00N 30°04' W 093°16'0 0.2
2018-Jun-16 18:30N 30°04' W 093°16'1 2.4
2018-Jun-16 18:00N 30°02' W 093°16'1 2.9
2018-Jun-16 17:29N 30°02' W 093°14'0 0.0
2018-Jun-16 17:00N 30°02' W 093°14'0 0.0
2018-Jun-16 16:30N 30°02' W 093°14'0 0.0
2018-Jun-16 16:00N 30°02' W 093°14'0 0.0
2018-Jun-16 15:30N 30°02' W 093°14'0 0.0
2018-Jun-16 15:00N 30°02' W 093°14'0 0.0
2018-Jun-16 14:30N 30°02' W 093°14'0 0.0
2018-Jun-16 13:59N 30°02' W 093°14'0 0.0
2018-Jun-16 13:29N 30°02' W 093°14'0 0.5
2018-Jun-16 13:00N 30°01' W 093°14'2 3.6
2018-Jun-16 12:30N 29°60' W 093°13'2 3.9
2018-Jun-16 12:00N 29°58' W 093°12'2 3.6
2018-Jun-16 11:30N 29°57' W 093°10'0 0.1
2018-Jun-16 11:00N 29°57' W 093°10'0 0.0
2018-Jun-16 10:30N 29°57' W 093°10'0 0.0
2018-Jun-16 10:00N 29°57' W 093°10'0 0.0
2018-Jun-16 09:30N 29°57' W 093°10'0 0.0
2018-Jun-16 09:00N 29°57' W 093°10'0 0.0
2018-Jun-16 08:27N 29°57' W 093°10'0 0.0
2018-Jun-16 08:00N 29°57' W 093°10'0 0.0
2018-Jun-16 07:27N 29°57' W 093°10'0 0.0
2018-Jun-16 07:00N 29°57' W 093°10'0 0.0
2018-Jun-16 06:30N 29°57' W 093°10'0 0.0
2018-Jun-16 05:57N 29°57' W 093°10'0 0.0
2018-Jun-16 05:30N 29°57' W 093°10'0 0.0
2018-Jun-16 05:00N 29°57' W 093°10'0 0.0
2018-Jun-16 04:27N 29°57' W 093°10'0 0.0
2018-Jun-16 04:00N 29°57' W 093°10'0 0.0
2018-Jun-16 03:30N 29°57' W 093°10'0 0.0
2018-Jun-16 03:00N 29°57' W 093°10'0 0.0
2018-Jun-16 02:30N 29°57' W 093°10'1 2.8
2018-Jun-16 02:00N 29°56' W 093°09'2 4.0
2018-Jun-16 01:31N 29°56' W 093°07'37 2.5
2018-Jun-15 10:49N 29°53' W 092°25'2 4.3
2018-Jun-15 10:20N 29°52' W 092°22'1 4.1
2018-Jun-15 10:00N 29°51' W 092°22'1 2.5
2018-Jun-15 09:25N 29°51' W 092°20'0 0.0
2018-Jun-15 08:59N 29°51' W 092°20'2 3.7
2018-Jun-15 08:30N 29°50' W 092°18'2 4.1
2018-Jun-15 08:00N 29°49' W 092°16'2 4.7
2018-Jun-15 07:30N 29°48' W 092°14'1 2.9
2018-Jun-15 07:00N 29°47' W 092°12'1 2.2
2018-Jun-15 06:28N 29°47' W 092°11'2 3.3
2018-Jun-15 06:00N 29°47' W 092°09'2 4.1
2018-Jun-15 05:30N 29°47' W 092°07'2 4.6
2018-Jun-15 05:00N 29°48' W 092°05'2 4.4
2018-Jun-15 04:30N 29°49' W 092°02'2 4.5
2018-Jun-15 04:00N 29°50' W 091°60'2 4.5
2018-Jun-15 03:30N 29°50' W 091°57'53 3.7
2018-Jun-14 12:59N 29°36' W 090°58'3 4.9
2018-Jun-14 12:22N 29°34' W 090°56'2 5.3
2018-Jun-14 11:57N 29°33' W 090°54'2 4.8
2018-Jun-14 11:29N 29°32' W 090°51'2 5.1
2018-Jun-14 11:00N 29°32' W 090°48'2 4.5
2018-Jun-14 10:31N 29°32' W 090°46'2 3.8
2018-Jun-14 10:00N 29°34' W 090°44'1 2.9
2018-Jun-14 09:31N 29°35' W 090°43'2 4.0
2018-Jun-14 09:00N 29°37' W 090°42'1 1.3
2018-Jun-14 08:30N 29°37' W 090°42'0 0.1
2018-Jun-14 08:00N 29°37' W 090°42'0 0.0
2018-Jun-14 07:30N 29°37' W 090°42'0 0.0
2018-Jun-14 07:00N 29°37' W 090°42'0 0.0
2018-Jun-14 06:30N 29°37' W 090°42'0 0.0
2018-Jun-14 06:00N 29°37' W 090°42'0 0.0
2018-Jun-14 05:30N 29°37' W 090°42'0 0.0
2018-Jun-14 05:00N 29°37' W 090°42'0 0.0
2018-Jun-14 04:30N 29°37' W 090°42'0 0.0
2018-Jun-14 04:00N 29°37' W 090°42'0 0.0
2018-Jun-14 03:30N 29°37' W 090°42'0 0.0
2018-Jun-14 03:00N 29°37' W 090°42'0 0.0
2018-Jun-14 02:30N 29°37' W 090°42'0 0.0
2018-Jun-14 02:00N 29°37' W 090°42'0 0.0
2018-Jun-14 01:30N 29°37' W 090°42'0 0.0
2018-Jun-14 01:00N 29°37' W 090°42'0 0.0
2018-Jun-14 00:30N 29°37' W 090°42'0 0.0
2018-Jun-14 00:00N 29°37' W 090°42'0 0.0
2018-Jun-13 23:30N 29°37' W 090°42'0 0.0
2018-Jun-13 23:00N 29°37' W 090°42'0 0.0
2018-Jun-13 22:30N 29°37' W 090°42'0 0.0
2018-Jun-13 22:00N 29°37' W 090°42'0 0.0
2018-Jun-13 21:30N 29°37' W 090°42'0 0.0
2018-Jun-13 21:00N 29°37' W 090°42'0 0.0
2018-Jun-13 20:30N 29°37' W 090°42'0 0.0
2018-Jun-13 20:00N 29°37' W 090°42'0 0.1
2018-Jun-13 19:30N 29°37' W 090°42'0 0.0
2018-Jun-13 19:00N 29°37' W 090°42'0 0.0
2018-Jun-13 18:30N 29°37' W 090°42'0 0.0
2018-Jun-13 18:00N 29°37' W 090°42'0 0.0
2018-Jun-13 17:30N 29°37' W 090°42'0 0.0
2018-Jun-13 17:00N 29°37' W 090°42'0 0.0
2018-Jun-13 16:30N 29°37' W 090°42'0 0.0
2018-Jun-13 16:00N 29°37' W 090°42'0 0.0
2018-Jun-13 15:30N 29°37' W 090°42'0 0.0
2018-Jun-13 15:00N 29°37' W 090°42'0 0.0
2018-Jun-13 14:30N 29°37' W 090°42'0 0.0
2018-Jun-13 14:00N 29°37' W 090°42'0 0.0
2018-Jun-13 13:30N 29°37' W 090°42'0 0.0
2018-Jun-13 12:57N 29°37' W 090°42'0 0.0
2018-Jun-13 12:30N 29°37' W 090°42'0 0.0
2018-Jun-13 12:00N 29°37' W 090°42'0 0.0
2018-Jun-13 11:30N 29°37' W 090°42'0 0.0
2018-Jun-13 11:00N 29°37' W 090°42'0 0.0
2018-Jun-13 10:30N 29°37' W 090°42'0 0.0
2018-Jun-13 10:00N 29°37' W 090°42'0 0.0
2018-Jun-13 09:30N 29°37' W 090°42'0 0.0
2018-Jun-13 09:00N 29°37' W 090°42'0 0.0
2018-Jun-13 08:30N 29°37' W 090°42'0 0.0
2018-Jun-13 08:00N 29°37' W 090°42'0 0.0
2018-Jun-13 07:30N 29°37' W 090°42'0 0.1
2018-Jun-13 07:00N 29°37' W 090°42'0 0.4
2018-Jun-13 06:30N 29°37' W 090°42'0 0.7
2018-Jun-13 06:00N 29°37' W 090°42'0 0.0
2018-Jun-13 05:30N 29°37' W 090°42'0 0.0
2018-Jun-13 05:00N 29°37' W 090°42'0 0.0
2018-Jun-13 04:30N 29°37' W 090°42'0 0.0
2018-Jun-13 04:00N 29°37' W 090°42'0 0.0
2018-Jun-13 03:30N 29°37' W 090°42'0 0.0
2018-Jun-13 03:00N 29°37' W 090°42'0 0.0
2018-Jun-13 02:30N 29°37' W 090°42'1 2.0
2018-Jun-13 02:00N 29°36' W 090°41'1 1.8
2018-Jun-13 01:29N 29°37' W 090°42'0 0.8
2018-Jun-13 01:00N 29°36' W 090°41'0 0.9
2018-Jun-13 00:29N 29°37' W 090°42'0 0.0
2018-Jun-12 23:59N 29°37' W 090°42'0 0.0
2018-Jun-12 23:29N 29°37' W 090°42'0 0.0
2018-Jun-12 22:59N 29°37' W 090°42'0 0.0
2018-Jun-12 22:29N 29°37' W 090°42'0 0.0
2018-Jun-12 21:59N 29°37' W 090°42'0 0.0
2018-Jun-12 21:29N 29°37' W 090°42'0 0.0
2018-Jun-12 20:59N 29°37' W 090°42'0 0.0
2018-Jun-12 20:29N 29°37' W 090°42'0 0.0
2018-Jun-12 19:59N 29°37' W 090°42'0 0.0
2018-Jun-12 19:29N 29°37' W 090°42'0 0.0
2018-Jun-12 18:59N 29°37' W 090°42'0 0.0
2018-Jun-12 18:29N 29°37' W 090°42'0 0.0
2018-Jun-12 17:59N 29°37' W 090°42'0 0.0
2018-Jun-12 17:29N 29°37' W 090°42'1 2.1
2018-Jun-12 17:01N 29°36' W 090°43'2 4.9
2018-Jun-12 16:30N 29°34' W 090°43'1 1.7
2018-Jun-12 16:00N 29°34' W 090°44'0 0.4
2018-Jun-12 15:30N 29°34' W 090°45'2 4.8
2018-Jun-12 15:00N 29°32' W 090°47'4 6.9
2018-Jun-12 14:27N 29°32' W 090°51'60 4.3
2018-Jun-12 00:42N 29°51' W 091°56'1 6.2
2018-Jun-12 00:30N 29°50' W 091°57'3 6.4
2018-Jun-11 23:59N 29°49' W 092°01'3 6.2
2018-Jun-11 23:31N 29°48' W 092°04'3 6.0
2018-Jun-11 23:01N 29°47' W 092°08'3 5.7
2018-Jun-11 22:31N 29°47' W 092°11'2 3.8
2018-Jun-11 22:00N 29°47' W 092°13'3 5.9
2018-Jun-11 21:31N 29°48' W 092°16'3 5.8
2018-Jun-11 21:00N 29°50' W 092°19'3 5.9
2018-Jun-11 20:30N 29°51' W 092°22'38 5.7
2018-Jun-11 13:52N 29°56' W 093°05'2 5.5
2018-Jun-11 13:30N 29°56' W 093°07'3 5.3
2018-Jun-11 13:00N 29°57' W 093°10'3 5.8
2018-Jun-11 12:30N 29°59' W 093°12'3 5.4
2018-Jun-11 12:00N 30°01' W 093°14'2 4.7
2018-Jun-11 11:30N 30°03' W 093°16'2 4.5
2018-Jun-11 11:00N 30°05' W 093°17'1 1.2
2018-Jun-11 10:28N 30°05' W 093°18'1 1.4
2018-Jun-11 10:00N 30°06' W 093°18'0 0.5
2018-Jun-11 09:30N 30°06' W 093°18'0 0.0
2018-Jun-11 08:57N 30°06' W 093°18'0 0.0
2018-Jun-11 08:30N 30°06' W 093°18'0 0.0
2018-Jun-11 08:01N 30°06' W 093°18'0 0.0
2018-Jun-11 07:30N 30°06' W 093°18'0 0.0
2018-Jun-11 07:00N 30°06' W 093°18'0 0.0
2018-Jun-11 06:30N 30°06' W 093°18'0 0.0
2018-Jun-11 05:58N 30°06' W 093°18'0 0.0
2018-Jun-11 05:31N 30°06' W 093°18'0 0.0
2018-Jun-11 05:00N 30°06' W 093°18'0 0.0
2018-Jun-11 04:30N 30°06' W 093°18'0 0.1
2018-Jun-11 04:00N 30°06' W 093°18'1 1.4
2018-Jun-11 03:30N 30°06' W 093°19'0 0.0
2018-Jun-11 03:00N 30°06' W 093°19'0 0.0
2018-Jun-11 02:30N 30°06' W 093°19'0 0.7
2018-Jun-11 02:00N 30°06' W 093°20'2 4.6
2018-Jun-11 01:30N 30°08' W 093°20'0 0.8
2018-Jun-11 01:00N 30°08' W 093°19'0 0.0
2018-Jun-11 00:30N 30°08' W 093°19'0 0.0
2018-Jun-11 00:00N 30°08' W 093°19'0 0.0
2018-Jun-10 23:30N 30°08' W 093°19'0 0.0
2018-Jun-10 23:00N 30°08' W 093°19'0 0.0
2018-Jun-10 22:30N 30°08' W 093°19'0 0.0
2018-Jun-10 22:00N 30°08' W 093°19'0 0.0
2018-Jun-10 21:30N 30°08' W 093°19'0 0.0
2018-Jun-10 20:58N 30°08' W 093°19'0 0.0
2018-Jun-10 20:28N 30°08' W 093°19'0 0.0
2018-Jun-10 19:58N 30°08' W 093°19'0 0.0
2018-Jun-10 19:27N 30°08' W 093°19'0 0.0
2018-Jun-10 18:58N 30°08' W 093°19'0 0.0
2018-Jun-10 18:31N 30°08' W 093°19'0 0.0
2018-Jun-10 18:01N 30°08' W 093°19'0 0.0
2018-Jun-10 17:31N 30°08' W 093°19'0 0.0
2018-Jun-10 17:01N 30°08' W 093°19'0 0.0
2018-Jun-10 16:28N 30°08' W 093°19'0 0.0
2018-Jun-10 15:57N 30°08' W 093°19'0 0.0
2018-Jun-10 15:28N 30°08' W 093°19'0 0.0
2018-Jun-10 15:01N 30°08' W 093°19'  
Track history (hours):
 
Tides and Currents Weather Stations Pressure Air Temp Water Temp Dewpoint Dewpoint Depression Visibility Wind Speed Wind Dir Waves Ship Positions

Capt. Timmy Callais

Owner: Florida Marine, LLC, Mandeville, LA. More information available from US FCC via Universal Licensing System and Coast Guard Vessel Documentation Center.

Last reported at 2018-Jun-20 14:24 UTC. Time now 2018-Jun-20 22:49 UTC.
Position N 29°23' W 094°46'.

Length 27 m; draft 2.8 m.

Type: Towing. MMSI: 367186360.

Date/timePositionNaut miles runAvg speedWind from/ knotsBaromVisibWave heightAir tempDewpointWater temp
2018-Jun-20 14:24N 29°23' W 094°46'0 0.0
2018-Jun-20 12:51N 29°23' W 094°46'18 1.6
2018-Jun-20 01:10N 29°33' W 094°28'1 6.2
2018-Jun-20 01:00N 29°34' W 094°28'3 5.5
2018-Jun-20 00:29N 29°35' W 094°25'2 4.8
2018-Jun-19 23:59N 29°36' W 094°22'3 6.8
2018-Jun-19 23:30N 29°38' W 094°19'3 6.8
2018-Jun-19 23:00N 29°39' W 094°16'3 6.7
2018-Jun-19 22:30N 29°41' W 094°12'3 6.2
2018-Jun-19 22:00N 29°42' W 094°09'3 6.2
2018-Jun-19 21:30N 29°44' W 094°06'3 6.2
2018-Jun-19 21:00N 29°46' W 094°03'3 6.0
2018-Jun-19 20:30N 29°48' W 094°01'3 5.1
2018-Jun-19 20:00N 29°49' W 093°58'2 5.0
2018-Jun-19 19:30N 29°51' W 093°57'4 7.0
2018-Jun-19 19:00N 29°54' W 093°54'4 7.1
2018-Jun-19 18:30N 29°57' W 093°52'3 5.7
2018-Jun-19 18:00N 29°59' W 093°49'3 6.3
2018-Jun-19 17:30N 30°00' W 093°46'3 5.2
2018-Jun-19 17:00N 30°02' W 093°44'3 5.6
2018-Jun-19 16:30N 30°04' W 093°41'3 5.8
2018-Jun-19 16:00N 30°04' W 093°38'3 5.6
2018-Jun-19 15:30N 30°04' W 093°35'3 5.5
2018-Jun-19 15:00N 30°04' W 093°31'3 5.6
2018-Jun-19 14:30N 30°04' W 093°28'3 5.5
2018-Jun-19 14:00N 30°04' W 093°25'3 5.5
2018-Jun-19 13:30N 30°04' W 093°22'3 5.5
2018-Jun-19 13:00N 30°06' W 093°20'3 5.3
2018-Jun-19 12:30N 30°08' W 093°19'0 0.3
2018-Jun-19 11:59N 30°08' W 093°19'0 0.0
2018-Jun-19 11:28N 30°08' W 093°19'0 0.0
2018-Jun-19 10:58N 30°08' W 093°19'0 0.0
2018-Jun-19 10:28N 30°08' W 093°19'0 0.0
2018-Jun-19 09:58N 30°08' W 093°19'0 0.0
2018-Jun-19 09:28N 30°08' W 093°19'0 0.0
2018-Jun-19 08:58N 30°08' W 093°19'0 0.0
2018-Jun-19 08:28N 30°08' W 093°19'0 0.0
2018-Jun-19 07:58N 30°08' W 093°19'0 0.0
2018-Jun-19 07:28N 30°08' W 093°19'0 0.0
2018-Jun-19 06:58N 30°08' W 093°19'0 0.0
2018-Jun-19 06:28N 30°08' W 093°19'0 0.0
2018-Jun-19 05:58N 30°08' W 093°19'0 0.0
2018-Jun-19 05:28N 30°08' W 093°19'0 0.0
2018-Jun-19 04:58N 30°08' W 093°19'0 0.0
2018-Jun-19 04:28N 30°08' W 093°19'0 0.0
2018-Jun-19 03:58N 30°08' W 093°19'0 0.0
2018-Jun-19 03:28N 30°08' W 093°19'0 0.0
2018-Jun-19 02:58N 30°08' W 093°19'0 0.0
2018-Jun-19 02:28N 30°08' W 093°19'0 0.0
2018-Jun-19 01:58N 30°08' W 093°19'0 0.0
2018-Jun-19 01:28N 30°08' W 093°19'0 0.0
2018-Jun-19 00:58N 30°08' W 093°19'0 0.0
2018-Jun-19 00:28N 30°08' W 093°19'0 0.0
2018-Jun-18 23:58N 30°08' W 093°19'0 0.0
2018-Jun-18 23:28N 30°08' W 093°19'0 0.0
2018-Jun-18 22:58N 30°08' W 093°19'0 0.7
2018-Jun-18 22:28N 30°08' W 093°20'0 0.0
2018-Jun-18 21:58N 30°08' W 093°20'0 0.0
2018-Jun-18 21:28N 30°08' W 093°20'0 0.7
2018-Jun-18 21:00N 30°08' W 093°20'2 4.1
2018-Jun-18 20:30N 30°06' W 093°20'1 1.8
2018-Jun-18 20:00N 30°05' W 093°20'0 0.1
2018-Jun-18 19:30N 30°05' W 093°20'0 0.0
2018-Jun-18 18:59N 30°05' W 093°20'0 0.0
2018-Jun-18 18:29N 30°05' W 093°20'0 0.0
2018-Jun-18 17:59N 30°05' W 093°20'0 0.0
2018-Jun-18 17:29N 30°05' W 093°20'0 0.0
2018-Jun-18 16:59N 30°05' W 093°20'0 0.0
2018-Jun-18 16:29N 30°05' W 093°20'0 0.0
2018-Jun-18 15:59N 30°05' W 093°20'0 0.0
2018-Jun-18 15:29N 30°05' W 093°20'0 0.0
2018-Jun-18 14:59N 30°05' W 093°20'0 0.0
2018-Jun-18 14:29N 30°05' W 093°20'0 0.0
2018-Jun-18 13:59N 30°05' W 093°20'0 0.0
2018-Jun-18 13:29N 30°05' W 093°20'0 0.0
2018-Jun-18 13:00N 30°05' W 093°20'0 0.0
2018-Jun-18 12:29N 30°05' W 093°20'0 0.0
2018-Jun-18 11:59N 30°05' W 093°20'0 0.0
2018-Jun-18 11:23N 30°05' W 093°20'0 0.0
2018-Jun-18 10:59N 30°05' W 093°20'0 0.0
2018-Jun-18 10:29N 30°05' W 093°20'0 0.0
2018-Jun-18 09:59N 30°05' W 093°20'0 0.0
2018-Jun-18 09:29N 30°05' W 093°20'0 0.0
2018-Jun-18 09:00N 30°05' W 093°20'0 0.0
2018-Jun-18 08:29N 30°05' W 093°20'0 0.0
2018-Jun-18 07:59N 30°05' W 093°20'0 0.0
2018-Jun-18 07:29N 30°05' W 093°20'0 0.0
2018-Jun-18 06:59N 30°05' W 093°20'0 0.0
2018-Jun-18 06:29N 30°05' W 093°20'0 0.0
2018-Jun-18 05:59N 30°05' W 093°20'0 0.0
2018-Jun-18 05:29N 30°05' W 093°20'1 2.9
2018-Jun-18 05:00N 30°06' W 093°19'1 1.1
2018-Jun-18 04:30N 30°06' W 093°18'0 0.3
2018-Jun-18 03:59N 30°06' W 093°18'0 0.0
2018-Jun-18 03:29N 30°06' W 093°18'0 0.3
2018-Jun-18 03:01N 30°06' W 093°18'2 3.2
2018-Jun-18 02:28N 30°05' W 093°20'0 0.0
2018-Jun-18 01:58N 30°05' W 093°20'0 0.0
2018-Jun-18 01:28N 30°05' W 093°20'0 0.0
2018-Jun-18 00:58N 30°05' W 093°20'0 0.0
2018-Jun-18 00:28N 30°05' W 093°20'0 0.0
2018-Jun-17 23:58N 30°05' W 093°20'0 0.0
2018-Jun-17 23:30N 30°05' W 093°20'0 0.1
2018-Jun-17 22:59N 30°05' W 093°20'0 0.2
2018-Jun-17 22:29N 30°05' W 093°20'0 0.0
2018-Jun-17 21:59N 30°05' W 093°20'0 0.0
2018-Jun-17 21:29N 30°05' W 093°20'0 0.0
2018-Jun-17 20:59N 30°05' W 093°20'0 0.0
2018-Jun-17 20:29N 30°05' W 093°20'0 0.0
2018-Jun-17 19:59N 30°05' W 093°20'0 0.0
2018-Jun-17 19:29N 30°05' W 093°20'0 0.0
2018-Jun-17 18:59N 30°05' W 093°20'0 0.0
2018-Jun-17 18:29N 30°05' W 093°20'0 0.0
2018-Jun-17 17:59N 30°05' W 093°20'0 0.0
2018-Jun-17 17:29N 30°05' W 093°20'0 0.0
2018-Jun-17 16:56N 30°05' W 093°20'0 0.0
2018-Jun-17 16:29N 30°05' W 093°20'0 0.0
2018-Jun-17 15:59N 30°05' W 093°20'0 0.0
2018-Jun-17 15:29N 30°05' W 093°20'0 0.0
2018-Jun-17 14:59N 30°05' W 093°20'0 0.0
2018-Jun-17 14:29N 30°05' W 093°20'0 0.0
2018-Jun-17 14:00N 30°05' W 093°20'0 0.0
2018-Jun-17 13:30N 30°05' W 093°20'0 0.0
2018-Jun-17 13:00N 30°05' W 093°20'0 0.0
2018-Jun-17 12:30N 30°05' W 093°20'0 0.0
2018-Jun-17 12:00N 30°05' W 093°20'0 0.0
2018-Jun-17 11:30N 30°05' W 093°20'0 0.0
2018-Jun-17 11:00N 30°05' W 093°20'0 0.0
2018-Jun-17 10:30N 30°05' W 093°20'0 0.0
2018-Jun-17 10:00N 30°05' W 093°20'0 0.0
2018-Jun-17 09:30N 30°05' W 093°20'0 0.0
2018-Jun-17 09:00N 30°05' W 093°20'0 0.0
2018-Jun-17 08:30N 30°05' W 093°20'0 0.0
2018-Jun-17 08:00N 30°05' W 093°20'0 0.0
2018-Jun-17 07:30N 30°05' W 093°20'0 0.0
2018-Jun-17 07:00N 30°05' W 093°20'0 0.0
2018-Jun-17 06:30N 30°05' W 093°20'0 0.0
2018-Jun-17 06:00N 30°05' W 093°20'0 0.0
2018-Jun-17 05:30N 30°05' W 093°20'0 0.0
2018-Jun-17 05:00N 30°05' W 093°20'0 0.0
2018-Jun-17 04:30N 30°05' W 093°20'0 0.0
2018-Jun-17 03:54N 30°05' W 093°20'0 0.0
2018-Jun-17 03:30N 30°05' W 093°20'0 0.0
2018-Jun-17 03:00N 30°05' W 093°20'0 0.5
2018-Jun-17 02:29N 30°05' W 093°20'0 0.0
2018-Jun-17 01:59N 30°05' W 093°20'0 0.0
2018-Jun-17 01:29N 30°05' W 093°20'0 0.0
2018-Jun-17 00:59N 30°05' W 093°20'0 0.0
2018-Jun-17 00:29N 30°05' W 093°20'0 0.0
2018-Jun-16 23:59N 30°05' W 093°20'0 0.0
2018-Jun-16 23:29N 30°05' W 093°20'0 0.5
2018-Jun-16 23:00N 30°05' W 093°20'0 0.4
2018-Jun-16 22:30N 30°05' W 093°20'1 1.7
2018-Jun-16 22:00N 30°06' W 093°20'0 0.9
2018-Jun-16 21:30N 30°06' W 093°19'1 2.5
2018-Jun-16 21:00N 30°05' W 093°18'1 1.5
2018-Jun-16 20:30N 30°05' W 093°17'1 1.9
2018-Jun-16 20:00N 30°04' W 093°16'0 0.6
2018-Jun-16 19:30N 30°04' W 093°16'0 0.6
2018-Jun-16 19:00N 30°04' W 093°16'0 0.2
2018-Jun-16 18:30N 30°04' W 093°16'1 2.4
2018-Jun-16 18:00N 30°02' W 093°16'1 2.9
2018-Jun-16 17:29N 30°02' W 093°14'0 0.0
2018-Jun-16 17:00N 30°02' W 093°14'0 0.0
2018-Jun-16 16:30N 30°02' W 093°14'0 0.0
2018-Jun-16 16:00N 30°02' W 093°14'0 0.0
2018-Jun-16 15:30N 30°02' W 093°14'0 0.0
2018-Jun-16 15:00N 30°02' W 093°14'0 0.0
2018-Jun-16 14:30N 30°02' W 093°14'0 0.0
2018-Jun-16 13:59N 30°02' W 093°14'0 0.0
2018-Jun-16 13:29N 30°02' W 093°14'0 0.5
2018-Jun-16 13:00N 30°01' W 093°14'2 3.6
2018-Jun-16 12:30N 29°60' W 093°13'2 3.9
2018-Jun-16 12:00N 29°58' W 093°12'2 3.6
2018-Jun-16 11:30N 29°57' W 093°10'0 0.1
2018-Jun-16 11:00N 29°57' W 093°10'0 0.0
2018-Jun-16 10:30N 29°57' W 093°10'0 0.0
2018-Jun-16 10:00N 29°57' W 093°10'0 0.0
2018-Jun-16 09:30N 29°57' W 093°10'0 0.0
2018-Jun-16 09:00N 29°57' W 093°10'0 0.0
2018-Jun-16 08:27N 29°57' W 093°10'0 0.0
2018-Jun-16 08:00N 29°57' W 093°10'0 0.0
2018-Jun-16 07:27N 29°57' W 093°10'0 0.0
2018-Jun-16 07:00N 29°57' W 093°10'0 0.0
2018-Jun-16 06:30N 29°57' W 093°10'0 0.0
2018-Jun-16 05:57N 29°57' W 093°10'0 0.0
2018-Jun-16 05:30N 29°57' W 093°10'0 0.0
2018-Jun-16 05:00N 29°57' W 093°10'0 0.0
2018-Jun-16 04:27N 29°57' W 093°10'0 0.0
2018-Jun-16 04:00N 29°57' W 093°10'0 0.0
2018-Jun-16 03:30N 29°57' W 093°10'0 0.0
2018-Jun-16 03:00N 29°57' W 093°10'0 0.0
2018-Jun-16 02:30N 29°57' W 093°10'1 2.8
2018-Jun-16 02:00N 29°56' W 093°09'2 4.0
2018-Jun-16 01:31N 29°56' W 093°07'37 2.5
2018-Jun-15 10:49N 29°53' W 092°25'2 4.3
2018-Jun-15 10:20N 29°52' W 092°22'1 4.1
2018-Jun-15 10:00N 29°51' W 092°22'1 2.5
2018-Jun-15 09:25N 29°51' W 092°20'0 0.0
2018-Jun-15 08:59N 29°51' W 092°20'2 3.7
2018-Jun-15 08:30N 29°50' W 092°18'2 4.1
2018-Jun-15 08:00N 29°49' W 092°16'2 4.7
2018-Jun-15 07:30N 29°48' W 092°14'1 2.9
2018-Jun-15 07:00N 29°47' W 092°12'1 2.2
2018-Jun-15 06:28N 29°47' W 092°11'2 3.3
2018-Jun-15 06:00N 29°47' W 092°09'2 4.1
2018-Jun-15 05:30N 29°47' W 092°07'2 4.6
2018-Jun-15 05:00N 29°48' W 092°05'2 4.4
2018-Jun-15 04:30N 29°49' W 092°02'2 4.5
2018-Jun-15 04:00N 29°50' W 091°60'2 4.5
2018-Jun-15 03:30N 29°50' W 091°57'53 3.7
2018-Jun-14 12:59N 29°36' W 090°58'3 4.9
2018-Jun-14 12:22N 29°34' W 090°56'2 5.3
2018-Jun-14 11:57N 29°33' W 090°54'2 4.8
2018-Jun-14 11:29N 29°32' W 090°51'2 5.1
2018-Jun-14 11:00N 29°32' W 090°48'2 4.5
2018-Jun-14 10:31N 29°32' W 090°46'2 3.8
2018-Jun-14 10:00N 29°34' W 090°44'1 2.9
2018-Jun-14 09:31N 29°35' W 090°43'2 4.0
2018-Jun-14 09:00N 29°37' W 090°42'1 1.3
2018-Jun-14 08:30N 29°37' W 090°42'0 0.1
2018-Jun-14 08:00N 29°37' W 090°42'0 0.0
2018-Jun-14 07:30N 29°37' W 090°42'0 0.0
2018-Jun-14 07:00N 29°37' W 090°42'0 0.0
2018-Jun-14 06:30N 29°37' W 090°42'0 0.0
2018-Jun-14 06:00N 29°37' W 090°42'0 0.0
2018-Jun-14 05:30N 29°37' W 090°42'0 0.0
2018-Jun-14 05:00N 29°37' W 090°42'0 0.0
2018-Jun-14 04:30N 29°37' W 090°42'0 0.0
2018-Jun-14 04:00N 29°37' W 090°42'0 0.0
2018-Jun-14 03:30N 29°37' W 090°42'0 0.0
2018-Jun-14 03:00N 29°37' W 090°42'0 0.0
2018-Jun-14 02:30N 29°37' W 090°42'0 0.0
2018-Jun-14 02:00N 29°37' W 090°42'0 0.0
2018-Jun-14 01:30N 29°37' W 090°42'0 0.0
2018-Jun-14 01:00N 29°37' W 090°42'0 0.0
2018-Jun-14 00:30N 29°37' W 090°42'0 0.0
2018-Jun-14 00:00N 29°37' W 090°42'0 0.0
2018-Jun-13 23:30N 29°37' W 090°42'0 0.0
2018-Jun-13 23:00N 29°37' W 090°42'0 0.0
2018-Jun-13 22:30N 29°37' W 090°42'0 0.0
2018-Jun-13 22:00N 29°37' W 090°42'0 0.0
2018-Jun-13 21:30N 29°37' W 090°42'0 0.0
2018-Jun-13 21:00N 29°37' W 090°42'0 0.0
2018-Jun-13 20:30N 29°37' W 090°42'0 0.0
2018-Jun-13 20:00N 29°37' W 090°42'0 0.1
2018-Jun-13 19:30N 29°37' W 090°42'0 0.0
2018-Jun-13 19:00N 29°37' W 090°42'0 0.0
2018-Jun-13 18:30N 29°37' W 090°42'0 0.0
2018-Jun-13 18:00N 29°37' W 090°42'0 0.0
2018-Jun-13 17:30N 29°37' W 090°42'0 0.0
2018-Jun-13 17:00N 29°37' W 090°42'0 0.0
2018-Jun-13 16:30N 29°37' W 090°42'0 0.0
2018-Jun-13 16:00N 29°37' W 090°42'0 0.0
2018-Jun-13 15:30N 29°37' W 090°42'0 0.0
2018-Jun-13 15:00N 29°37' W 090°42'0 0.0
2018-Jun-13 14:30N 29°37' W 090°42'0 0.0
2018-Jun-13 14:00N 29°37' W 090°42'0 0.0
2018-Jun-13 13:30N 29°37' W 090°42'0 0.0
2018-Jun-13 12:57N 29°37' W 090°42'0 0.0
2018-Jun-13 12:30N 29°37' W 090°42'0 0.0
2018-Jun-13 12:00N 29°37' W 090°42'0 0.0
2018-Jun-13 11:30N 29°37' W 090°42'0 0.0
2018-Jun-13 11:00N 29°37' W 090°42'0 0.0
2018-Jun-13 10:30N 29°37' W 090°42'0 0.0
2018-Jun-13 10:00N 29°37' W 090°42'0 0.0
2018-Jun-13 09:30N 29°37' W 090°42'0 0.0
2018-Jun-13 09:00N 29°37' W 090°42'0 0.0
2018-Jun-13 08:30N 29°37' W 090°42'0 0.0
2018-Jun-13 08:00N 29°37' W 090°42'0 0.0
2018-Jun-13 07:30N 29°37' W 090°42'0 0.1
2018-Jun-13 07:00N 29°37' W 090°42'0 0.4
2018-Jun-13 06:30N 29°37' W 090°42'0 0.7
2018-Jun-13 06:00N 29°37' W 090°42'0 0.0
2018-Jun-13 05:30N 29°37' W 090°42'0 0.0
2018-Jun-13 05:00N 29°37' W 090°42'0 0.0
2018-Jun-13 04:30N 29°37' W 090°42'0 0.0
2018-Jun-13 04:00N 29°37' W 090°42'0 0.0
2018-Jun-13 03:30N 29°37' W 090°42'0 0.0
2018-Jun-13 03:00N 29°37' W 090°42'0 0.0
2018-Jun-13 02:30N 29°37' W 090°42'1 2.0
2018-Jun-13 02:00N 29°36' W 090°41'1 1.8
2018-Jun-13 01:29N 29°37' W 090°42'0 0.8
2018-Jun-13 01:00N 29°36' W 090°41'0 0.9
2018-Jun-13 00:29N 29°37' W 090°42'0 0.0
2018-Jun-12 23:59N 29°37' W 090°42'0 0.0
2018-Jun-12 23:29N 29°37' W 090°42'0 0.0
2018-Jun-12 22:59N 29°37' W 090°42'0 0.0
2018-Jun-12 22:29N 29°37' W 090°42'0 0.0
2018-Jun-12 21:59N 29°37' W 090°42'0 0.0
2018-Jun-12 21:29N 29°37' W 090°42'0 0.0
2018-Jun-12 20:59N 29°37' W 090°42'0 0.0
2018-Jun-12 20:29N 29°37' W 090°42'0 0.0
2018-Jun-12 19:59N 29°37' W 090°42'0 0.0
2018-Jun-12 19:29N 29°37' W 090°42'0 0.0
2018-Jun-12 18:59N 29°37' W 090°42'0 0.0
2018-Jun-12 18:29N 29°37' W 090°42'0 0.0
2018-Jun-12 17:59N 29°37' W 090°42'0 0.0
2018-Jun-12 17:29N 29°37' W 090°42'1 2.1
2018-Jun-12 17:01N 29°36' W 090°43'2 4.9
2018-Jun-12 16:30N 29°34' W 090°43'1 1.7
2018-Jun-12 16:00N 29°34' W 090°44'0 0.4
2018-Jun-12 15:30N 29°34' W 090°45'2 4.8
2018-Jun-12 15:00N 29°32' W 090°47'4 6.9
2018-Jun-12 14:27N 29°32' W 090°51'60 4.3
2018-Jun-12 00:42N 29°51' W 091°56'1 6.2
2018-Jun-12 00:30N 29°50' W 091°57'3 6.4
2018-Jun-11 23:59N 29°49' W 092°01'3 6.2
2018-Jun-11 23:31N 29°48' W 092°04'3 6.0
2018-Jun-11 23:01N 29°47' W 092°08'3 5.7
2018-Jun-11 22:31N 29°47' W 092°11'2 3.8
2018-Jun-11 22:00N 29°47' W 092°13'3 5.9
2018-Jun-11 21:31N 29°48' W 092°16'3 5.8
2018-Jun-11 21:00N 29°50' W 092°19'3 5.9
2018-Jun-11 20:30N 29°51' W 092°22'38 5.7
2018-Jun-11 13:52N 29°56' W 093°05'2 5.5
2018-Jun-11 13:30N 29°56' W 093°07'3 5.3
2018-Jun-11 13:00N 29°57' W 093°10'3 5.8
2018-Jun-11 12:30N 29°59' W 093°12'3 5.4
2018-Jun-11 12:00N 30°01' W 093°14'2 4.7
2018-Jun-11 11:30N 30°03' W 093°16'2 4.5
2018-Jun-11 11:00N 30°05' W 093°17'1 1.2
2018-Jun-11 10:28N 30°05' W 093°18'1 1.4
2018-Jun-11 10:00N 30°06' W 093°18'0 0.5
2018-Jun-11 09:30N 30°06' W 093°18'0 0.0
2018-Jun-11 08:57N 30°06' W 093°18'0 0.0
2018-Jun-11 08:30N 30°06' W 093°18'0 0.0
2018-Jun-11 08:01N 30°06' W 093°18'0 0.0
2018-Jun-11 07:30N 30°06' W 093°18'0 0.0
2018-Jun-11 07:00N 30°06' W 093°18'0 0.0
2018-Jun-11 06:30N 30°06' W 093°18'0 0.0
2018-Jun-11 05:58N 30°06' W 093°18'0 0.0
2018-Jun-11 05:31N 30°06' W 093°18'0 0.0
2018-Jun-11 05:00N 30°06' W 093°18'0 0.0
2018-Jun-11 04:30N 30°06' W 093°18'0 0.1
2018-Jun-11 04:00N 30°06' W 093°18'1 1.4
2018-Jun-11 03:30N 30°06' W 093°19'0 0.0
2018-Jun-11 03:00N 30°06' W 093°19'0 0.0
2018-Jun-11 02:30N 30°06' W 093°19'0 0.7
2018-Jun-11 02:00N 30°06' W 093°20'2 4.6
2018-Jun-11 01:30N 30°08' W 093°20'0 0.8
2018-Jun-11 01:00N 30°08' W 093°19'0 0.0
2018-Jun-11 00:30N 30°08' W 093°19'0 0.0
2018-Jun-11 00:00N 30°08' W 093°19'0 0.0
2018-Jun-10 23:30N 30°08' W 093°19'0 0.0
2018-Jun-10 23:00N 30°08' W 093°19'0 0.0
2018-Jun-10 22:30N 30°08' W 093°19'0 0.0
2018-Jun-10 22:00N 30°08' W 093°19'0 0.0
2018-Jun-10 21:30N 30°08' W 093°19'0 0.0
2018-Jun-10 20:58N 30°08' W 093°19'0 0.0
2018-Jun-10 20:28N 30°08' W 093°19'0 0.0
2018-Jun-10 19:58N 30°08' W 093°19'0 0.0
2018-Jun-10 19:27N 30°08' W 093°19'0 0.0
2018-Jun-10 18:58N 30°08' W 093°19'0 0.0
2018-Jun-10 18:31N 30°08' W 093°19'0 0.0
2018-Jun-10 18:01N 30°08' W 093°19'0 0.0
2018-Jun-10 17:31N 30°08' W 093°19'0 0.0
2018-Jun-10 17:01N 30°08' W 093°19'0 0.0
2018-Jun-10 16:28N 30°08' W 093°19'0 0.0
2018-Jun-10 15:57N 30°08' W 093°19'0 0.0
2018-Jun-10 15:28N 30°08' W 093°19'0 0.0
2018-Jun-10 15:01N 30°08' W 093°19'  

Dump ship's entire track history